»·PEaware :: N701GT L70-KSMX

N701GT :: L70-KSMX

FLIGHT INFORMATION

Flight Status: Arrived
Operator: Privately registered:
United States
More flights under this callsign
Pilot: Anonymous 17564 (17564)
Aircraft: MOONEY M-20K/M ENCORE BRAVO
(M20T)
More flights by this aircraft type
Origin: L70 Agua Dulce
United States
Destination: KSMX Santa Maria Pub/Capt Hancock
United States
More flights between these airports :: More routes between these airports
Route: SAUGS V386 RZS GVO AFOXY
File this flight plan on PilotEdge
Remarks: P3Dv4.1 ORBX GLOBAL / VECTOR / SOCAL F1 GNS750 ASP4 Weather Gen
Altitude:
(Current/Filed)
6,500ft
Speed:
(Current/Filed)
175kts
Departed: 23-Jan-18 11:18 AM
Arrived: 23-Jan-18 12:13 PM
Distance/Time
Traveled:
108nm/0:55
Distance/Time
To Go:
Arrived

Flight Plot

Page will automatically refresh every two minutes.

Flight plan parsing failed; only flown route is shown


Map Options




Map Legend


Flown Route
Filed Route
Departure Airport
Arrival Airport
Navaid (VOR, NDB)
Fix

Horizontal Profiles

Position Reports

Time Latitude Longitude Heading Altitude Ground
Speed
23-Jan-18 11:09 34.503328 -118.314656 323 2605ft 0kts
23-Jan-18 11:10 34.503328 -118.314656 323 2605ft 0kts
23-Jan-18 11:11 34.503328 -118.314656 323 2605ft 0kts
23-Jan-18 11:12 34.503328 -118.314656 323 2605ft 0kts
23-Jan-18 11:13 34.503328 -118.314656 323 2605ft 0kts
23-Jan-18 11:14 34.503328 -118.314656 323 2605ft 0kts
23-Jan-18 11:15 34.503328 -118.314656 323 2605ft 0kts
23-Jan-18 11:16 34.503328 -118.314656 323 2605ft 0kts
23-Jan-18 11:17 34.503328 -118.314656 323 2605ft 0kts
23-Jan-18 11:18 34.503328 -118.314656 323 2605ft 0kts
23-Jan-18 11:19 34.503328 -118.314656 323 2605ft 0kts
23-Jan-18 11:20 34.503621 -118.313752 53 2605ft 7kts
23-Jan-18 11:21 34.504937 -118.311629 50 2605ft 8kts
23-Jan-18 11:22 34.506351 -118.309395 52 2605ft 7kts
23-Jan-18 11:23 34.505559 -118.309804 233 2605ft 31kts
23-Jan-18 11:24 34.492083 -118.329842 274 3075ft 107kts
23-Jan-18 11:25 34.499279 -118.361605 270 4311ft 93kts
23-Jan-18 11:26 34.498414 -118.391234 270 5407ft 86kts
23-Jan-18 11:27 34.497241 -118.418511 275 6437ft 83kts
23-Jan-18 11:28 34.496814 -118.458027 273 6644ft 150kts
23-Jan-18 11:29 34.484587 -118.504368 253 7637ft 138kts
23-Jan-18 11:30 34.470347 -118.545598 255 8484ft 134kts
23-Jan-18 11:31 34.453918 -118.594712 253 8535ft 177kts
23-Jan-18 11:32 34.435319 -118.649664 253 8496ft 187kts
23-Jan-18 11:33 34.415833 -118.707151 254 8482ft 176kts
23-Jan-18 11:34 34.397544 -118.761142 254 8469ft 170kts
23-Jan-18 11:35 34.379612 -118.813993 254 8466ft 169kts
23-Jan-18 11:36 34.362436 -118.864517 253 8463ft 169kts
23-Jan-18 11:37 34.362742 -118.915284 287 8456ft 159kts
23-Jan-18 11:38 34.371860 -118.967699 287 8451ft 159kts
23-Jan-18 11:39 34.381016 -119.020225 287 8450ft 159kts
23-Jan-18 11:40 34.390130 -119.072559 287 8451ft 159kts
23-Jan-18 11:41 34.399253 -119.125058 287 8452ft 160kts
23-Jan-18 11:42 34.408422 -119.177968 287 8451ft 160kts
23-Jan-18 11:43 34.417547 -119.230773 287 8448ft 160kts
23-Jan-18 11:44 34.426652 -119.283595 287 8447ft 160kts
23-Jan-18 11:45 34.435763 -119.336586 287 8451ft 160kts
23-Jan-18 11:46 34.444845 -119.389495 287 8452ft 160kts
23-Jan-18 11:47 34.453937 -119.442693 287 8448ft 161kts
23-Jan-18 11:48 34.463267 -119.497633 286 8448ft 164kts
23-Jan-18 11:49 34.472399 -119.551198 286 8440ft 161kts
23-Jan-18 11:50 34.481042 -119.602121 286 8439ft 161kts
23-Jan-18 11:51 34.490026 -119.655234 286 8437ft 161kts
23-Jan-18 11:52 34.498991 -119.708396 286 8435ft 161kts
23-Jan-18 11:53 34.507949 -119.762063 285 8402ft 166kts
23-Jan-18 11:54 34.512522 -119.814594 280 8437ft 163kts
23-Jan-18 11:55 34.516333 -119.869528 280 8435ft 163kts
23-Jan-18 11:56 34.520071 -119.924311 280 8434ft 163kts
23-Jan-18 11:57 34.523788 -119.979074 280 8438ft 163kts
23-Jan-18 11:58 34.527476 -120.033774 280 8459ft 162kts
23-Jan-18 11:59 34.532368 -120.088046 297 7736ft 169kts
23-Jan-18 12:00 34.566759 -120.123494 325 6958ft 162kts
23-Jan-18 12:01 34.602296 -120.156280 325 6155ft 159kts
23-Jan-18 12:02 34.636633 -120.190276 323 5356ft 160kts
23-Jan-18 12:03 34.669651 -120.223833 322 4587ft 161kts
23-Jan-18 12:04 34.702449 -120.257090 322 3815ft 156kts
23-Jan-18 12:05 34.733774 -120.288940 323 3456ft 132kts
23-Jan-18 12:06 34.758170 -120.313777 323 3454ft 108kts
23-Jan-18 12:07 34.778880 -120.338603 303 3292ft 120kts
23-Jan-18 12:08 34.795627 -120.377339 299 3013ft 139kts
23-Jan-18 12:09 34.808897 -120.419544 291 2960ft 133kts
23-Jan-18 12:10 34.819529 -120.466102 301 2680ft 151kts
23-Jan-18 12:11 34.848703 -120.501411 342 2553ft 159kts
23-Jan-18 12:12 34.893928 -120.510455 358 2392ft 164kts
23-Jan-18 12:13 34.936297 -120.494294 47 2420ft 163kts
23-Jan-18 12:14 34.917956 -120.451555 144 1807ft 171kts
23-Jan-18 12:15 34.890754 -120.416357 134 1724ft 118kts
23-Jan-18 12:16 34.866412 -120.401306 220 1734ft 93kts
23-Jan-18 12:17 34.875582 -120.426077 318 1088ft 89kts
23-Jan-18 12:18 34.891364 -120.444127 314 339ft 61kts
23-Jan-18 12:19 34.897266 -120.450322 359 264ft 5kts
23-Jan-18 12:20 34.897920 -120.450322 2 264ft 5kts
23-Jan-18 12:21 34.899100 -120.449360 56 264ft 8kts
23-Jan-18 12:22 34.899227 -120.448881 246 264ft 0kts
23-Jan-18 12:23 34.899227 -120.448881 246 264ft 0kts
23-Jan-18 12:24 34.899227 -120.448881 246 264ft 0kts
23-Jan-18 12:25 34.899227 -120.448881 246 264ft 0kts
23-Jan-18 12:26 34.899227 -120.448881 246 264ft 0kts
23-Jan-18 12:27 34.899227 -120.448881 246 264ft 0kts
23-Jan-18 12:28 34.899227 -120.448881 246 264ft 0kts
23-Jan-18 12:29 34.899227 -120.448881 246 264ft 0kts
23-Jan-18 12:30 34.899227 -120.448881 246 264ft 0kts
23-Jan-18 12:31 34.899227 -120.448881 246 264ft 0kts
23-Jan-18 12:32 34.899227 -120.448881 246 264ft 0kts
23-Jan-18 12:33 34.899227 -120.448881 246 264ft 0kts

Navigation Log

Ident Type
Flight plan parsing failed, navigation log unavailable